Latest Weather Observations for Curtin

IDW60801

Issued at 9:05 pm WST Monday 20 October 2014 (issued every 30 minutes, with the page automatically refreshed every 10 minutes)

About weather observations | Map of weather stations | Latest weather observations for WA | Other Formats
Station Details ID: 003080 Name: CURTIN AERO Lat: -17.58 Lon: 123.83 Height: 77.5 m
Data from the previous 72 hours. | See also: Recent months at Curtin
Date/Time
WST
Temp
°C
App
Temp
°C
Dew
Point
Rel
Hum
%
Delta-T
°C
Wind Press
QNH
hPa
Press
MSL
hPa
Rain
since 9 am
mm
Dir
 
Spd
km/h
Gust
km/h
Spd
kts
Gust
kts
20/09:00pm 30.5 27.3 11.9 31 10.9 WSW 20 28 11 15 1012.6 1012.1 0.0
20/08:30pm 29.2 30.5 19.2 54 6.5 W 11 15 6 8 1012.5 1012.0 0.0
20/08:00pm 29.3 30.8 19.0 53 6.7 NW 9 13 5 7 1012.2 1011.7 0.0
20/07:30pm 29.2 30.7 18.0 51 7.2 N 7 13 4 7 1011.7 1011.2 0.0
20/07:00pm 29.7 30.8 17.2 47 7.9 NNW 7 11 4 6 1011.4 1010.9 0.0
20/06:30pm 30.8 30.9 17.5 45 8.5 NNW 13 17 7 9 1010.9 1010.4 0.0
20/06:00pm 32.3 31.8 17.7 41 9.4 NNW 17 26 9 14 1010.2 1009.7 0.0
20/05:30pm 36.8 34.6 7.8 17 16.4 SW 9 13 5 7 1009.6 1009.1 0.0
20/05:00pm 38.3 35.9 7.1 15 17.6 S 9 15 5 8 1009.3 1008.8 0.0
20/04:30pm 38.9 37.0 6.6 14 18.1 W 6 9 3 5 1009.0 1008.5 0.0
20/04:00pm 39.4 37.6 7.0 14 18.3 WNW 6 19 3 10 1008.9 1008.4 0.0
20/03:30pm 39.0 37.1 7.7 15 17.8 SW 7 24 4 13 1009.1 1008.6 0.0
20/03:00pm 38.8 36.1 7.5 15 17.8 SSW 11 19 6 10 1009.2 1008.7 0.0
20/02:30pm 38.8 36.5 7.5 15 17.8 SSW 9 17 5 9 1009.6 1009.1 0.0
20/02:00pm 38.8 36.6 9.4 17 17.2 WSW 11 20 6 11 1009.9 1009.4 0.0
20/01:30pm 38.7 35.9 10.1 18 16.9 SW 15 24 8 13 1010.3 1009.8 0.0
20/01:00pm 37.4 35.5 9.1 18 16.4 SW 9 20 5 11 1010.9 1010.4 0.0
20/12:30pm 37.5 34.9 9.2 18 16.4 W 13 22 7 12 1011.5 1011.0 0.0
20/12:00pm 36.4 33.5 8.3 18 16.0 SSE 13 19 7 10 1012.0 1011.5 0.0
20/11:30am 36.4 33.5 8.3 18 16.0 W 13 17 7 9 1012.6 1012.1 0.0
20/11:00am 35.8 33.8 10.1 21 15.0 S 11 22 6 12 1013.2 1012.7 0.0
20/10:30am 34.9 31.7 8.6 20 14.9 SSW 15 20 8 11 1013.7 1013.2 0.0
20/10:00am 33.7 31.0 9.0 22 14.0 SSW 13 20 7 11 1014.1 1013.6 0.0
20/09:30am 33.4 31.2 9.4 23 13.7 S 11 17 6 9 1014.8 1014.2 0.0
20/09:00am 32.3 31.1 11.5 28 12.2 SW 9 15 5 8 1015.0 1014.4 0.0
20/08:30am 30.9 31.1 13.2 34 10.6 NNW 4 11 2 6 1014.9 1014.3 0.0
20/08:00am 30.0 30.1 14.5 38 9.4 W 7 11 4 6 1015.0 1014.4 0.0
20/07:30am 28.7 29.5 16.3 47 7.7 WNW 7 11 4 6 1014.8 1014.2 0.0
20/07:00am 26.9 27.6 17.1 55 6.1 NNW 9 13 5 7 1014.7 1014.1 0.0
20/06:30am 25.3 27.0 18.5 66 4.3 NW 7 13 4 7 1014.0 1013.5 0.0
20/06:00am 22.0 23.8 18.4 80 2.3 N 6 7 3 4 1013.9 1013.4 0.0
20/05:30am 19.2 19.9 16.2 83 1.8 N 7 9 4 5 1013.5 1013.0 0.0
20/05:00am 20.0 21.1 17.2 84 1.7 NNE 7 11 4 6 1013.2 1012.7 0.0
20/04:30am 21.1 21.6 17.5 80 2.2 ENE 11 15 6 8 1012.9 1012.4 0.0
20/04:00am 20.9 21.1 17.7 82 2.0 ENE 13 15 7 8 1012.4 1011.9 0.0
20/03:30am 19.4 21.0 15.9 80 2.1 W 2 7 1 4 1011.6 1011.1 0.0
20/03:00am 22.2 23.1 17.6 75 2.9 WSW 9 9 5 5 1011.1 1010.6 0.0
20/02:30am 23.0 24.1 18.1 74 3.1 W 9 11 5 6 1011.0 1010.5 0.0
20/02:00am 22.6 23.6 16.9 70 3.5 W 7 9 4 5 1011.0 1010.5 0.0
20/01:30am 24.3 25.1 18.2 68 3.8 WSW 11 13 6 7 1010.9 1010.4 0.0
20/01:00am 24.8 24.9 18.3 67 4.1 SW 15 17 8 9 1011.0 1010.5 0.0
20/12:30am 25.0 25.3 18.7 68 4.0 SW 15 19 8 10 1011.1 1010.6 0.0
20/12:00am 25.6 25.6 19.0 67 4.2 WSW 17 20 9 11 1011.4 1010.9 0.0
 
Date/Time
WST
Temp
°C
App
Temp
°C
Dew
Point
Rel
Hum
%
Delta-T
°C
Wind Press
QNH
hPa
Press
MSL
hPa
Rain
since 9 am
mm
Dir
 
Spd
km/h
Gust
km/h
Spd
kts
Gust
kts
19/11:30pm 25.9 25.4 18.6 64 4.7 SW 19 24 10 13 1011.6 1011.1 0.0
19/11:00pm 26.2 25.2 17.6 59 5.4 WSW 19 22 10 12 1011.7 1011.2 0.0
19/10:30pm 27.1 25.2 16.7 53 6.5 SW 22 28 12 15 1011.9 1011.4 0.0
19/10:00pm 27.9 25.9 15.5 46 7.6 WSW 20 24 11 13 1012.1 1011.6 0.0
19/09:30pm 28.5 26.7 16.1 47 7.7 WSW 20 26 11 14 1012.2 1011.7 0.0
19/09:00pm 29.2 27.1 15.3 42 8.5 WSW 20 28 11 15 1012.1 1011.6 0.0
19/08:30pm 29.0 29.0 17.2 49 7.5 W 13 20 7 11 1011.9 1011.4 0.0
19/08:00pm 28.8 30.2 18.6 54 6.6 NW 9 13 5 7 1011.5 1011.0 0.0
19/07:30pm 29.4 29.0 18.8 53 6.9 W 19 24 10 13 1011.5 1011.0 0.0
19/07:00pm 30.5 30.6 16.5 43 8.8 NNW 11 17 6 9 1010.8 1010.3 0.0
19/06:30pm 32.1 29.9 7.7 22 13.5 NNW 9 17 5 9 1010.4 1009.9 0.0
19/06:00pm 34.1 30.3 -0.5 11 16.9 NW 9 11 5 6 1009.9 1009.4 0.0
19/05:30pm 35.8 31.3 -0.5 10 17.9 WNW 13 20 7 11 1009.5 1009.0 0.0
19/05:00pm 37.0 32.4 1.7 11 18.2 WNW 15 22 8 12 1009.2 1008.7 0.0
19/04:30pm 38.3 35.5 7.1 15 17.6 WNW 11 19 6 10 1009.0 1008.5 0.0
19/04:00pm 38.1 34.7 6.0 14 17.8 SW 13 19 7 10 1008.9 1008.4 0.0
19/03:30pm 37.8 35.3 6.7 15 17.4 N 9 13 5 7 1008.9 1008.4 0.0
19/03:00pm 38.8 35.4 7.5 15 17.8 W 15 32 8 17 1008.9 1008.4 0.0
19/02:30pm 38.0 35.4 7.8 16 17.2 W 11 20 6 11 1008.9 1008.4 0.0
19/02:00pm 38.4 36.0 7.2 15 17.6 S 9 17 5 9 1009.3 1008.8 0.0
19/01:30pm 38.6 35.7 8.3 16 17.4 SW 13 19 7 10 1009.7 1009.2 0.0
19/01:00pm 37.7 36.2 9.3 18 16.5 WNW 7 15 4 8 1010.2 1009.7 0.0
19/12:30pm 37.8 34.1 10.2 19 16.2 WSW 20 24 11 13 1010.7 1010.2 0.0
19/12:00pm 37.5 36.0 10.7 20 15.9 WNW 9 20 5 11 1011.4 1010.9 0.0
19/11:30am 36.2 35.4 11.1 22 14.9 N 6 15 3 8 1012.0 1011.5 0.0
19/11:00am 35.9 33.5 10.2 21 15.0 S 13 24 7 13 1012.4 1011.9 0.0
19/10:30am 34.6 33.6 12.3 26 13.4 WNW 9 13 5 7 1012.9 1012.4 0.0
19/10:00am 33.1 32.6 13.7 31 11.8 W 9 17 5 9 1013.3 1012.8 0.0
19/09:30am 32.4 31.2 14.1 33 11.2 SW 13 17 7 9 1013.7 1013.2 0.0
19/09:00am 31.8 31.4 15.3 37 10.2 SSW 11 17 6 9 1013.9 1013.4 0.0
19/08:30am 30.3 30.1 15.6 41 9.1 S 11 17 6 9 1014.1 1013.6 0.0
19/08:00am 29.3 29.9 15.8 44 8.4 SSE 7 13 4 7 1014.3 1013.8 0.0
19/07:30am 27.6 29.1 17.7 54 6.3 W 6 11 3 6 1014.1 1013.6 0.0
19/07:00am 26.3 28.6 19.4 66 4.5 W 6 9 3 5 1013.7 1013.2 0.0
19/06:30am 24.2 26.6 19.7 76 2.9 NNE 6 7 3 4 1013.3 1012.8 0.0
19/06:00am 21.0 22.7 18.4 85 1.6 NE 7 9 4 5 1012.9 1012.4 0.0
19/05:30am 18.7 20.4 16.1 85 1.6 ENE 2 6 1 3 1012.5 1012.0 0.0
19/05:00am 18.3 19.0 15.7 85 1.5 NE 6 7 3 4 1012.2 1011.7 0.0
19/04:30am 18.8 19.4 15.9 83 1.7 NE 7 7 4 4 1012.0 1011.5 0.0
19/04:00am 19.9 20.5 16.9 83 1.8 NE 9 13 5 7 1011.7 1011.2 0.0
19/03:30am 20.3 21.1 17.3 83 1.8 NNE 9 11 5 6 1011.3 1010.8 0.0
19/03:00am 19.3 21.2 15.8 80 2.1 CALM 0 0 0 0 1011.0 1010.5 0.0
19/02:30am 20.1 21.8 15.3 74 2.8 CALM 0 4 0 2 1010.6 1010.1 0.0
19/02:00am 22.3 22.9 15.9 67 3.9 SW 7 9 4 5 1010.5 1010.0 0.0
19/01:30am 23.7 23.7 17.2 67 4.0 SSW 13 13 7 7 1010.5 1010.0 0.0
19/01:00am 23.8 23.8 17.1 66 4.2 SSW 13 13 7 7 1010.6 1010.1 0.0
19/12:30am 24.0 24.0 16.3 62 4.7 SSW 11 11 6 6 1010.9 1010.4 0.0
19/12:00am 25.4 25.2 16.8 59 5.3 SW 13 15 7 8 1011.0 1010.5 0.0
 
Date/Time
WST
Temp
°C
App
Temp
°C
Dew
Point
Rel
Hum
%
Delta-T
°C
Wind Press
QNH
hPa
Press
MSL
hPa
Rain
since 9 am
mm
Dir
 
Spd
km/h
Gust
km/h
Spd
kts
Gust
kts
18/11:30pm 26.2 25.2 16.7 56 5.9 SW 17 20 9 11 1011.2 1010.7 0.0
18/11:00pm 26.9 25.3 15.0 48 7.2 SSW 17 20 9 11 1011.3 1010.8 0.0
18/10:30pm 26.7 24.2 11.2 38 8.8 SSW 15 17 8 9 1011.3 1010.8 0.0
18/10:00pm 25.9 25.5 15.3 52 6.4 WSW 11 13 6 7 1011.5 1011.0 0.0
18/09:30pm 24.1 23.9 13.6 52 6.1 W 7 9 4 5 1011.6 1011.1 0.0
18/09:00pm 26.4 27.0 15.8 52 6.5 WNW 7 7 4 4 1011.5 1011.0 0.0
18/08:30pm 26.6 26.1 12.6 42 8.2 NW 7 11 4 6 1011.3 1010.8 0.0
18/08:00pm 28.1 26.4 11.2 35 9.7 NNW 11 13 6 7 1011.0 1010.5 0.0
18/07:30pm 28.7 26.9 7.9 27 11.3 NW 7 9 4 5 1010.7 1010.2 0.0
18/07:00pm 29.3 26.6 5.4 22 12.5 NNW 9 13 5 7 1010.4 1009.9 0.0
18/06:30pm 29.3 26.7 4.0 20 12.9 NNW 7 9 4 5 1010.1 1009.6 0.0
18/06:00pm 32.5 29.2 4.3 17 14.8 NW 11 17 6 9 1009.7 1009.2 0.0
18/05:30pm 34.3 30.7 3.0 14 16.2 NW 11 19 6 10 1009.4 1008.9 0.0
18/05:00pm 35.6 30.9 0.6 11 17.6 NW 15 20 8 11 1009.1 1008.6 0.0
18/04:30pm 36.5 31.5 1.3 11 18.0 NW 17 26 9 14 1008.9 1008.4 0.0
18/04:00pm 36.6 31.4 2.6 12 17.8 NW 19 28 10 15 1008.6 1008.0 0.0
18/03:30pm 36.9 32.4 6.0 15 17.0 NNW 19 26 10 14 1008.6 1008.0 0.0
18/03:00pm 37.7 33.5 5.6 14 17.7 WNW 17 24 9 13 1008.6 1008.0 0.0
18/02:30pm 37.8 34.0 5.7 14 17.7 W 15 28 8 15 1008.9 1008.4 0.0
18/02:00pm 37.9 34.1 5.8 14 17.7 NNW 15 22 8 12 1009.1 1008.6 0.0
18/01:30pm 37.1 34.1 4.1 13 17.7 ENE 9 17 5 9 1009.5 1009.0 0.0
18/01:00pm 37.7 34.6 3.4 12 18.2 ENE 9 17 5 9 1009.9 1009.4 0.0
18/12:30pm 37.2 35.4 7.2 16 16.8 NNW 6 13 3 7 1010.4 1009.9 0.0
18/12:00pm 36.1 34.3 8.0 18 15.9 W 7 13 4 7 1011.1 1010.6 0.0
18/11:30am 36.9 33.9 7.8 17 16.5 SW 13 22 7 12 1011.8 1011.3 0.0
18/11:00am 35.5 32.6 8.3 19 15.4 N 13 20 7 11 1012.3 1011.8 0.0
18/10:30am 34.6 32.5 8.4 20 14.8 SE 9 15 5 8 1012.8 1012.3 0.0
18/10:00am 33.8 33.8 14.3 31 12.0 SSE 7 13 4 7 1013.2 1012.7 0.0
18/09:30am 32.8 32.5 13.4 30 11.7 SW 7 11 4 6 1013.7 1013.2 0.0
18/09:00am 32.2 32.2 15.2 35 10.5 SSW 9 11 5 6 1013.8 1013.3 0.0
18/08:30am 30.9 32.2 17.2 43 8.7 N 6 11 3 6 1014.1 1013.6 0.0
18/08:00am 29.4 31.6 19.1 54 6.7 SW 6 11 3 6 1014.0 1013.5 0.0
18/07:30am 28.4 30.6 19.3 57 5.9 SW 6 11 3 6 1014.2 1013.7 0.0
18/07:00am 27.6 31.9 21.2 68 4.3 CALM 0 0 0 0 1014.0 1013.5 0.0
18/06:30am 25.3 30.7 23.2 88 1.4 CALM 0 0 0 0 1013.7 1013.2 0.0
18/06:00am 22.1 26.4 21.1 94 0.7 CALM 0 6 0 3 1013.3 1012.8 0.0
18/05:30am 18.8 21.7 18.3 97 0.3 CALM 0 2 0 1 1013.0 1012.5 0.0
18/05:00am 18.1 19.0 16.6 91 0.9 N 7 9 4 5 1012.6 1012.1 0.0
18/04:30am 18.1 18.9 16.3 89 1.1 N 7 9 4 5 1012.2 1011.7 0.0
18/04:00am 18.6 20.8 16.6 88 1.2 CALM 0 0 0 0 1011.9 1011.4 0.0
18/03:30am 19.1 20.9 16.5 85 1.6 NNE 2 6 1 3 1011.7 1011.2 0.0
18/03:00am 19.1 21.1 16.0 82 1.9 CALM 0 0 0 0 1011.6 1011.1 0.0
18/02:30am 19.6 21.5 15.7 78 2.3 CALM 0 4 0 2 1011.5 1011.0 0.0
18/02:00am 20.1 20.8 15.7 76 2.6 NNE 6 7 3 4 1011.5 1011.0 0.0
18/01:30am 20.6 21.2 15.4 72 3.1 NNE 6 9 3 5 1011.6 1011.1 0.0
18/01:00am 20.9 21.3 14.8 68 3.6 NE 6 9 3 5 1011.8 1011.3 0.0
18/12:30am 22.6 22.9 15.0 62 4.5 NE 7 9 4 5 1011.9 1011.4 0.0
18/12:00am 21.6 21.9 15.0 66 3.9 NE 7 11 4 6 1012.1 1011.6 0.0
 
Date/Time
WST
Temp
°C
App
Temp
°C
Dew
Point
Rel
Hum
%
Delta-T
°C
Wind Press
QNH
hPa
Press
MSL
hPa
Rain
since 9 am
mm
Dir
 
Spd
km/h
Gust
km/h
Spd
kts
Gust
kts
17/11:30pm 22.1 22.2 14.5 62 4.5 NW 7 7 4 4 1011.8 1011.3 0.0
17/11:00pm 24.9 25.6 16.1 58 5.4 W 7 9 4 5 1011.8 1011.3 0.0
17/10:30pm 23.6 24.1 15.6 61 4.8 WNW 7 7 4 4 1011.9 1011.4 0.0
17/10:00pm 23.8 24.5 15.6 60 5.0 WNW 6 7 3 4 1012.1 1011.6 0.0
17/09:30pm 27.2 28.1 16.5 52 6.6 W 7 9 4 5 1011.9 1011.4 0.0

Other Formats:

Comma delimited format used in spreadsheet applications
http://www.bom.gov.au/fwo/IDW60801/IDW60801.94204.axf

JavaScript Object Notation format (JSON) in row-major order
http://www.bom.gov.au/fwo/IDW60801/IDW60801.94204.json